sensor_id;sensor_type;location;lat;lon;timestamp;P1;durP1;ratioP1;P2;durP2;ratioP2
6727;SDS011;3401;52.504;13.430;2022-11-02T00:00:45;10.67;;;6.53;;
6727;SDS011;3401;52.504;13.430;2022-11-02T00:03:14;13.90;;;7.43;;
6727;SDS011;3401;52.504;13.430;2022-11-02T00:05:42;12.43;;;6.77;;
6727;SDS011;3401;52.504;13.430;2022-11-02T00:08:10;11.33;;;6.47;;
6727;SDS011;3401;52.504;13.430;2022-11-02T00:10:37;10.80;;;6.50;;
6727;SDS011;3401;52.504;13.430;2022-11-02T00:13:06;10.57;;;6.57;;
6727;SDS011;3401;52.504;13.430;2022-11-02T00:15:36;11.80;;;6.33;;
6727;SDS011;3401;52.504;13.430;2022-11-02T00:18:05;15.87;;;7.03;;
6727;SDS011;3401;52.504;13.430;2022-11-02T00:20:35;9.77;;;6.30;;
6727;SDS011;3401;52.504;13.430;2022-11-02T00:23:03;11.33;;;5.50;;
6727;SDS011;3401;52.504;13.430;2022-11-02T00:25:33;14.63;;;6.77;;
6727;SDS011;3401;52.504;13.430;2022-11-02T00:28:01;12.87;;;6.90;;
6727;SDS011;3401;52.504;13.430;2022-11-02T00:30:32;16.37;;;6.47;;
6727;SDS011;3401;52.504;13.430;2022-11-02T00:32:59;8.57;;;6.30;;
6727;SDS011;3401;52.504;13.430;2022-11-02T00:35:28;17.33;;;7.20;;
6727;SDS011;3401;52.504;13.430;2022-11-02T00:37:56;11.23;;;6.07;;
6727;SDS011;3401;52.504;13.430;2022-11-02T00:40:23;11.30;;;6.90;;
6727;SDS011;3401;52.504;13.430;2022-11-02T00:42:51;9.37;;;5.70;;
6727;SDS011;3401;52.504;13.430;2022-11-02T00:45:19;10.77;;;6.00;;
6727;SDS011;3401;52.504;13.430;2022-11-02T00:47:49;11.50;;;6.10;;
6727;SDS011;3401;52.504;13.430;2022-11-02T00:50:17;13.87;;;6.00;;
6727;SDS011;3401;52.504;13.430;2022-11-02T00:52:45;16.10;;;6.30;;
6727;SDS011;3401;52.504;13.430;2022-11-02T00:55:13;13.10;;;5.20;;
6727;SDS011;3401;52.504;13.430;2022-11-02T00:57:43;8.33;;;4.80;;
6727;SDS011;3401;52.504;13.430;2022-11-02T01:00:12;11.97;;;5.57;;
6727;SDS011;3401;52.504;13.430;2022-11-02T01:02:40;12.97;;;5.20;;
6727;SDS011;3401;52.504;13.430;2022-11-02T01:05:10;8.77;;;4.90;;
6727;SDS011;3401;52.504;13.430;2022-11-02T01:07:38;7.30;;;5.30;;
6727;SDS011;3401;52.504;13.430;2022-11-02T01:10:07;7.30;;;4.87;;
6727;SDS011;3401;52.504;13.430;2022-11-02T01:12:38;8.73;;;5.07;;
6727;SDS011;3401;52.504;13.430;2022-11-02T01:15:09;7.70;;;4.73;;
6727;SDS011;3401;52.504;13.430;2022-11-02T01:17:37;9.93;;;4.47;;
6727;SDS011;3401;52.504;13.430;2022-11-02T01:20:05;8.83;;;5.03;;
6727;SDS011;3401;52.504;13.430;2022-11-02T01:22:35;9.37;;;4.73;;
6727;SDS011;3401;52.504;13.430;2022-11-02T01:25:04;10.07;;;5.30;;
6727;SDS011;3401;52.504;13.430;2022-11-02T01:27:33;15.63;;;5.07;;
6727;SDS011;3401;52.504;13.430;2022-11-02T01:30:01;6.23;;;4.10;;
6727;SDS011;3401;52.504;13.430;2022-11-02T01:32:29;19.10;;;4.60;;
6727;SDS011;3401;52.504;13.430;2022-11-02T01:34:57;8.80;;;3.90;;
6727;SDS011;3401;52.504;13.430;2022-11-02T01:37:25;7.10;;;4.60;;
6727;SDS011;3401;52.504;13.430;2022-11-02T01:39:54;7.10;;;3.70;;
6727;SDS011;3401;52.504;13.430;2022-11-02T01:42:23;12.53;;;4.47;;
6727;SDS011;3401;52.504;13.430;2022-11-02T01:44:52;6.63;;;4.27;;
6727;SDS011;3401;52.504;13.430;2022-11-02T01:47:21;9.07;;;4.33;;
6727;SDS011;3401;52.504;13.430;2022-11-02T01:49:52;6.50;;;3.97;;
6727;SDS011;3401;52.504;13.430;2022-11-02T01:52:23;16.83;;;4.30;;
6727;SDS011;3401;52.504;13.430;2022-11-02T01:54:55;10.07;;;4.70;;
6727;SDS011;3401;52.504;13.430;2022-11-02T01:57:26;7.33;;;4.23;;
6727;SDS011;3401;52.504;13.430;2022-11-02T01:59:56;7.27;;;4.50;;
6727;SDS011;3401;52.504;13.430;2022-11-02T02:02:26;8.90;;;4.03;;
6727;SDS011;3401;52.504;13.430;2022-11-02T02:04:56;8.47;;;4.13;;
6727;SDS011;3401;52.504;13.430;2022-11-02T02:07:29;6.77;;;4.27;;
6727;SDS011;3401;52.504;13.430;2022-11-02T02:09:58;6.10;;;3.90;;
6727;SDS011;3401;52.504;13.430;2022-11-02T02:12:27;5.80;;;4.23;;
6727;SDS011;3401;52.504;13.430;2022-11-02T02:14:55;6.50;;;3.50;;
6727;SDS011;3401;52.504;13.430;2022-11-02T02:17:31;7.73;;;4.07;;
6727;SDS011;3401;52.504;13.430;2022-11-02T02:20:10;8.57;;;3.90;;
6727;SDS011;3401;52.504;13.430;2022-11-02T02:28:47;4.00;;;3.10;;
6727;SDS011;3401;52.504;13.430;2022-11-02T02:31:18;7.90;;;4.33;;
6727;SDS011;3401;52.504;13.430;2022-11-02T02:33:51;7.77;;;3.87;;
6727;SDS011;3401;52.504;13.430;2022-11-02T02:36:23;5.40;;;3.70;;
6727;SDS011;3401;52.504;13.430;2022-11-02T02:38:55;7.97;;;4.20;;
6727;SDS011;3401;52.504;13.430;2022-11-02T02:41:29;9.97;;;3.40;;
6727;SDS011;3401;52.504;13.430;2022-11-02T02:44:02;4.83;;;3.70;;
6727;SDS011;3401;52.504;13.430;2022-11-02T02:46:32;9.07;;;4.57;;
6727;SDS011;3401;52.504;13.430;2022-11-02T02:49:08;5.97;;;3.73;;
6727;SDS011;3401;52.504;13.430;2022-11-02T02:51:39;6.83;;;3.40;;
6727;SDS011;3401;52.504;13.430;2022-11-02T02:54:09;9.20;;;3.87;;
6727;SDS011;3401;52.504;13.430;2022-11-02T02:56:41;4.47;;;3.67;;
6727;SDS011;3401;52.504;13.430;2022-11-02T02:59:15;6.20;;;3.90;;
6727;SDS011;3401;52.504;13.430;2022-11-02T03:01:46;6.77;;;3.93;;
6727;SDS011;3401;52.504;13.430;2022-11-02T03:04:15;5.00;;;3.33;;
6727;SDS011;3401;52.504;13.430;2022-11-02T03:06:43;8.03;;;3.87;;
6727;SDS011;3401;52.504;13.430;2022-11-02T03:09:14;8.07;;;3.90;;
6727;SDS011;3401;52.504;13.430;2022-11-02T03:11:49;4.30;;;3.10;;
6727;SDS011;3401;52.504;13.430;2022-11-02T03:14:25;8.93;;;3.70;;
6727;SDS011;3401;52.504;13.430;2022-11-02T03:17:10;8.83;;;3.67;;
6727;SDS011;3401;52.504;13.430;2022-11-02T03:19:47;11.77;;;3.47;;
6727;SDS011;3401;52.504;13.430;2022-11-02T03:22:20;3.23;;;2.50;;
6727;SDS011;3401;52.504;13.430;2022-11-02T03:24:53;6.63;;;3.67;;
6727;SDS011;3401;52.504;13.430;2022-11-02T03:27:24;6.73;;;3.53;;
6727;SDS011;3401;52.504;13.430;2022-11-02T03:30:04;7.27;;;3.20;;
6727;SDS011;3401;52.504;13.430;2022-11-02T03:32:35;7.73;;;3.00;;
6727;SDS011;3401;52.504;13.430;2022-11-02T03:35:09;6.07;;;3.03;;
6727;SDS011;3401;52.504;13.430;2022-11-02T03:37:40;8.17;;;3.70;;
6727;SDS011;3401;52.504;13.430;2022-11-02T03:40:12;7.60;;;2.70;;
6727;SDS011;3401;52.504;13.430;2022-11-02T03:42:43;4.40;;;3.10;;
6727;SDS011;3401;52.504;13.430;2022-11-02T03:45:14;6.20;;;2.57;;
6727;SDS011;3401;52.504;13.430;2022-11-02T03:47:48;7.60;;;2.90;;
6727;SDS011;3401;52.504;13.430;2022-11-02T03:50:19;1.97;;;1.83;;
6727;SDS011;3401;52.504;13.430;2022-11-02T03:52:52;7.90;;;3.00;;
6727;SDS011;3401;52.504;13.430;2022-11-02T03:55:25;4.87;;;2.50;;
6727;SDS011;3401;52.504;13.430;2022-11-02T03:57:56;3.17;;;2.40;;
6727;SDS011;3401;52.504;13.430;2022-11-02T04:00:31;3.63;;;2.70;;
6727;SDS011;3401;52.504;13.430;2022-11-02T04:03:04;2.80;;;2.40;;
6727;SDS011;3401;52.504;13.430;2022-11-02T04:05:38;3.60;;;2.20;;
6727;SDS011;3401;52.504;13.430;2022-11-02T04:08:15;2.93;;;2.00;;
6727;SDS011;3401;52.504;13.430;2022-11-02T04:10:53;9.53;;;3.37;;
6727;SDS011;3401;52.504;13.430;2022-11-02T04:13:41;5.80;;;3.27;;
6727;SDS011;3401;52.504;13.430;2022-11-02T04:16:31;5.70;;;2.33;;
6727;SDS011;3401;52.504;13.430;2022-11-02T04:19:02;4.53;;;2.63;;
6727;SDS011;3401;52.504;13.430;2022-11-02T04:21:49;4.67;;;3.17;;
6727;SDS011;3401;52.504;13.430;2022-11-02T04:24:37;4.07;;;2.83;;
6727;SDS011;3401;52.504;13.430;2022-11-02T04:27:25;6.87;;;2.90;;
6727;SDS011;3401;52.504;13.430;2022-11-02T04:29:52;2.90;;;2.17;;
6727;SDS011;3401;52.504;13.430;2022-11-02T04:32:22;8.57;;;3.03;;
6727;SDS011;3401;52.504;13.430;2022-11-02T04:35:11;5.50;;;2.80;;
6727;SDS011;3401;52.504;13.430;2022-11-02T04:37:41;3.77;;;2.17;;
6727;SDS011;3401;52.504;13.430;2022-11-02T04:40:42;5.57;;;2.70;;
6727;SDS011;3401;52.504;13.430;2022-11-02T04:43:11;10.03;;;2.80;;
6727;SDS011;3401;52.504;13.430;2022-11-02T04:45:38;6.90;;;2.80;;
6727;SDS011;3401;52.504;13.430;2022-11-02T04:48:08;6.50;;;2.20;;
6727;SDS011;3401;52.504;13.430;2022-11-02T04:50:37;6.80;;;2.17;;
6727;SDS011;3401;52.504;13.430;2022-11-02T04:53:06;4.07;;;2.50;;
6727;SDS011;3401;52.504;13.430;2022-11-02T04:55:36;8.53;;;3.33;;
6727;SDS011;3401;52.504;13.430;2022-11-02T04:58:05;6.33;;;2.10;;
6727;SDS011;3401;52.504;13.430;2022-11-02T05:00:33;4.87;;;2.13;;
6727;SDS011;3401;52.504;13.430;2022-11-02T05:03:01;8.23;;;3.07;;
6727;SDS011;3401;52.504;13.430;2022-11-02T05:05:38;7.60;;;2.37;;
6727;SDS011;3401;52.504;13.430;2022-11-02T05:08:06;16.00;;;2.90;;
6727;SDS011;3401;52.504;13.430;2022-11-02T05:10:34;9.07;;;3.17;;
6727;SDS011;3401;52.504;13.430;2022-11-02T05:13:03;6.50;;;2.40;;
6727;SDS011;3401;52.504;13.430;2022-11-02T05:15:33;10.43;;;2.50;;
6727;SDS011;3401;52.504;13.430;2022-11-02T05:18:04;4.40;;;2.13;;
6727;SDS011;3401;52.504;13.430;2022-11-02T05:20:34;5.83;;;2.50;;
6727;SDS011;3401;52.504;13.430;2022-11-02T05:23:03;3.00;;;2.30;;
6727;SDS011;3401;52.504;13.430;2022-11-02T05:25:32;9.33;;;2.40;;
6727;SDS011;3401;52.504;13.430;2022-11-02T05:28:00;7.53;;;2.17;;
6727;SDS011;3401;52.504;13.430;2022-11-02T05:30:28;8.93;;;2.30;;
6727;SDS011;3401;52.504;13.430;2022-11-02T05:32:56;18.60;;;2.83;;
6727;SDS011;3401;52.504;13.430;2022-11-02T05:35:25;2.77;;;2.00;;
6727;SDS011;3401;52.504;13.430;2022-11-02T05:37:53;13.47;;;2.40;;
6727;SDS011;3401;52.504;13.430;2022-11-02T05:40:23;4.63;;;1.83;;
6727;SDS011;3401;52.504;13.430;2022-11-02T05:42:57;4.73;;;2.57;;
6727;SDS011;3401;52.504;13.430;2022-11-02T05:45:26;4.43;;;1.70;;
6727;SDS011;3401;52.504;13.430;2022-11-02T05:47:54;2.47;;;1.90;;
6727;SDS011;3401;52.504;13.430;2022-11-02T05:50:22;8.40;;;2.00;;
6727;SDS011;3401;52.504;13.430;2022-11-02T05:52:51;5.70;;;1.87;;
6727;SDS011;3401;52.504;13.430;2022-11-02T05:55:19;2.13;;;1.80;;
6727;SDS011;3401;52.504;13.430;2022-11-02T05:57:50;10.80;;;2.33;;
6727;SDS011;3401;52.504;13.430;2022-11-02T06:00:19;1.80;;;1.70;;
6727;SDS011;3401;52.504;13.430;2022-11-02T06:02:47;11.57;;;2.17;;
6727;SDS011;3401;52.504;13.430;2022-11-02T06:05:15;3.00;;;2.03;;
6727;SDS011;3401;52.504;13.430;2022-11-02T06:07:43;4.83;;;1.80;;
6727;SDS011;3401;52.504;13.430;2022-11-02T06:10:11;5.90;;;1.93;;
6727;SDS011;3401;52.504;13.430;2022-11-02T06:12:39;6.53;;;2.00;;
6727;SDS011;3401;52.504;13.430;2022-11-02T06:15:08;7.53;;;2.43;;
6727;SDS011;3401;52.504;13.430;2022-11-02T06:17:37;3.57;;;2.10;;
6727;SDS011;3401;52.504;13.430;2022-11-02T06:20:05;6.40;;;2.17;;
6727;SDS011;3401;52.504;13.430;2022-11-02T06:22:37;6.33;;;2.00;;
6727;SDS011;3401;52.504;13.430;2022-11-02T06:25:06;4.83;;;2.20;;
6727;SDS011;3401;52.504;13.430;2022-11-02T06:27:34;8.20;;;1.87;;
6727;SDS011;3401;52.504;13.430;2022-11-02T06:30:12;5.80;;;2.13;;
6727;SDS011;3401;52.504;13.430;2022-11-02T06:32:44;5.43;;;2.33;;
6727;SDS011;3401;52.504;13.430;2022-11-02T06:35:13;7.03;;;2.57;;
6727;SDS011;3401;52.504;13.430;2022-11-02T06:37:40;10.83;;;2.30;;
6727;SDS011;3401;52.504;13.430;2022-11-02T06:40:09;4.30;;;2.37;;
6727;SDS011;3401;52.504;13.430;2022-11-02T06:42:37;6.80;;;1.73;;
6727;SDS011;3401;52.504;13.430;2022-11-02T06:45:17;5.17;;;2.60;;
6727;SDS011;3401;52.504;13.430;2022-11-02T06:47:46;3.77;;;1.80;;
6727;SDS011;3401;52.504;13.430;2022-11-02T06:50:15;2.70;;;1.63;;
6727;SDS011;3401;52.504;13.430;2022-11-02T06:52:43;5.37;;;2.47;;
6727;SDS011;3401;52.504;13.430;2022-11-02T06:55:11;8.47;;;2.20;;
6727;SDS011;3401;52.504;13.430;2022-11-02T06:57:40;7.13;;;2.10;;
6727;SDS011;3401;52.504;13.430;2022-11-02T07:00:09;10.97;;;2.00;;
6727;SDS011;3401;52.504;13.430;2022-11-02T07:02:44;8.93;;;2.00;;
6727;SDS011;3401;52.504;13.430;2022-11-02T07:05:12;26.13;;;2.50;;
6727;SDS011;3401;52.504;13.430;2022-11-02T07:07:40;8.80;;;2.43;;
6727;SDS011;3401;52.504;13.430;2022-11-02T07:10:08;7.23;;;2.43;;
6727;SDS011;3401;52.504;13.430;2022-11-02T07:12:36;10.63;;;2.00;;
6727;SDS011;3401;52.504;13.430;2022-11-02T07:15:04;3.43;;;1.73;;
6727;SDS011;3401;52.504;13.430;2022-11-02T07:17:32;8.23;;;2.00;;
6727;SDS011;3401;52.504;13.430;2022-11-02T07:20:01;4.73;;;1.80;;
6727;SDS011;3401;52.504;13.430;2022-11-02T07:22:30;1.73;;;1.60;;
6727;SDS011;3401;52.504;13.430;2022-11-02T07:24:58;8.40;;;2.00;;
6727;SDS011;3401;52.504;13.430;2022-11-02T07:27:26;3.53;;;1.67;;
6727;SDS011;3401;52.504;13.430;2022-11-02T07:29:53;7.40;;;1.87;;
6727;SDS011;3401;52.504;13.430;2022-11-02T07:32:23;5.17;;;2.17;;
6727;SDS011;3401;52.504;13.430;2022-11-02T07:34:51;4.70;;;1.63;;
6727;SDS011;3401;52.504;13.430;2022-11-02T07:37:20;4.20;;;1.40;;
6727;SDS011;3401;52.504;13.430;2022-11-02T07:39:48;2.50;;;1.50;;
6727;SDS011;3401;52.504;13.430;2022-11-02T07:42:15;7.70;;;2.43;;
6727;SDS011;3401;52.504;13.430;2022-11-02T07:44:47;6.27;;;1.57;;
6727;SDS011;3401;52.504;13.430;2022-11-02T07:47:15;2.33;;;1.43;;
6727;SDS011;3401;52.504;13.430;2022-11-02T07:49:43;4.90;;;1.43;;
6727;SDS011;3401;52.504;13.430;2022-11-02T07:52:11;5.90;;;2.20;;
6727;SDS011;3401;52.504;13.430;2022-11-02T07:54:40;3.60;;;1.53;;
6727;SDS011;3401;52.504;13.430;2022-11-02T07:57:10;8.17;;;1.23;;
6727;SDS011;3401;52.504;13.430;2022-11-02T07:59:37;2.67;;;1.37;;
6727;SDS011;3401;52.504;13.430;2022-11-02T08:02:07;3.33;;;1.43;;
6727;SDS011;3401;52.504;13.430;2022-11-02T08:04:36;7.10;;;1.90;;
6727;SDS011;3401;52.504;13.430;2022-11-02T08:07:09;9.60;;;1.47;;
6727;SDS011;3401;52.504;13.430;2022-11-02T08:09:37;8.93;;;2.13;;
6727;SDS011;3401;52.504;13.430;2022-11-02T08:12:06;3.60;;;1.80;;
6727;SDS011;3401;52.504;13.430;2022-11-02T08:14:34;3.53;;;1.27;;
6727;SDS011;3401;52.504;13.430;2022-11-02T08:17:02;13.43;;;1.70;;
6727;SDS011;3401;52.504;13.430;2022-11-02T08:19:30;17.53;;;1.57;;
6727;SDS011;3401;52.504;13.430;2022-11-02T08:21:58;3.10;;;1.60;;
6727;SDS011;3401;52.504;13.430;2022-11-02T08:24:25;6.57;;;1.80;;
6727;SDS011;3401;52.504;13.430;2022-11-02T08:26:53;2.07;;;1.30;;
6727;SDS011;3401;52.504;13.430;2022-11-02T08:29:22;10.87;;;1.70;;
6727;SDS011;3401;52.504;13.430;2022-11-02T08:31:50;3.87;;;1.40;;
6727;SDS011;3401;52.504;13.430;2022-11-02T08:34:18;3.83;;;1.27;;
6727;SDS011;3401;52.504;13.430;2022-11-02T08:36:46;4.07;;;1.23;;
6727;SDS011;3401;52.504;13.430;2022-11-02T08:39:13;2.87;;;1.27;;
6727;SDS011;3401;52.504;13.430;2022-11-02T08:41:44;7.17;;;1.90;;
6727;SDS011;3401;52.504;13.430;2022-11-02T08:44:12;2.10;;;1.43;;
6727;SDS011;3401;52.504;13.430;2022-11-02T08:46:41;2.80;;;0.87;;
6727;SDS011;3401;52.504;13.430;2022-11-02T08:49:09;3.90;;;1.60;;
6727;SDS011;3401;52.504;13.430;2022-11-02T08:51:37;4.93;;;1.37;;
6727;SDS011;3401;52.504;13.430;2022-11-02T08:54:04;1.73;;;0.80;;
6727;SDS011;3401;52.504;13.430;2022-11-02T08:56:32;3.70;;;1.30;;
6727;SDS011;3401;52.504;13.430;2022-11-02T08:59:00;2.53;;;1.50;;
6727;SDS011;3401;52.504;13.430;2022-11-02T09:01:28;1.90;;;0.90;;
6727;SDS011;3401;52.504;13.430;2022-11-02T09:03:58;3.80;;;1.20;;
6727;SDS011;3401;52.504;13.430;2022-11-02T09:06:26;3.63;;;1.20;;
6727;SDS011;3401;52.504;13.430;2022-11-02T09:08:53;4.80;;;1.53;;
6727;SDS011;3401;52.504;13.430;2022-11-02T09:11:24;2.70;;;1.53;;
6727;SDS011;3401;52.504;13.430;2022-11-02T09:13:52;10.10;;;1.37;;
6727;SDS011;3401;52.504;13.430;2022-11-02T09:16:22;5.53;;;1.93;;
6727;SDS011;3401;52.504;13.430;2022-11-02T09:18:50;3.17;;;1.00;;
6727;SDS011;3401;52.504;13.430;2022-11-02T09:21:19;2.80;;;1.30;;
6727;SDS011;3401;52.504;13.430;2022-11-02T09:23:47;5.23;;;1.50;;
6727;SDS011;3401;52.504;13.430;2022-11-02T09:26:15;9.50;;;1.37;;
6727;SDS011;3401;52.504;13.430;2022-11-02T09:28:42;4.13;;;1.47;;
6727;SDS011;3401;52.504;13.430;2022-11-02T09:31:10;4.53;;;1.10;;
6727;SDS011;3401;52.504;13.430;2022-11-02T09:33:38;6.37;;;1.63;;
6727;SDS011;3401;52.504;13.430;2022-11-02T09:36:06;3.83;;;1.20;;
6727;SDS011;3401;52.504;13.430;2022-11-02T09:38:36;4.40;;;1.03;;
6727;SDS011;3401;52.504;13.430;2022-11-02T09:41:06;7.90;;;1.40;;
6727;SDS011;3401;52.504;13.430;2022-11-02T09:43:45;2.20;;;1.10;;
6727;SDS011;3401;52.504;13.430;2022-11-02T09:46:19;1.67;;;1.17;;
6727;SDS011;3401;52.504;13.430;2022-11-02T09:48:50;1.67;;;0.70;;
6727;SDS011;3401;52.504;13.430;2022-11-02T09:51:19;9.43;;;1.70;;
6727;SDS011;3401;52.504;13.430;2022-11-02T09:53:55;2.33;;;1.10;;
6727;SDS011;3401;52.504;13.430;2022-11-02T09:56:28;6.83;;;1.30;;
6727;SDS011;3401;52.504;13.430;2022-11-02T09:58:57;2.70;;;0.80;;
6727;SDS011;3401;52.504;13.430;2022-11-02T10:01:30;3.10;;;1.53;;
6727;SDS011;3401;52.504;13.430;2022-11-02T10:07:20;5.20;;;1.20;;
6727;SDS011;3401;52.504;13.430;2022-11-02T10:09:56;2.57;;;1.30;;
6727;SDS011;3401;52.504;13.430;2022-11-02T10:12:27;5.03;;;0.70;;
6727;SDS011;3401;52.504;13.430;2022-11-02T10:15:03;3.60;;;1.33;;
6727;SDS011;3401;52.504;13.430;2022-11-02T10:17:33;6.43;;;1.40;;
6727;SDS011;3401;52.504;13.430;2022-11-02T10:20:04;9.53;;;0.80;;
6727;SDS011;3401;52.504;13.430;2022-11-02T10:22:38;5.70;;;2.00;;
6727;SDS011;3401;52.504;13.430;2022-11-02T10:25:11;2.10;;;0.60;;
6727;SDS011;3401;52.504;13.430;2022-11-02T10:27:42;12.00;;;1.40;;
6727;SDS011;3401;52.504;13.430;2022-11-02T10:30:12;12.63;;;1.37;;
6727;SDS011;3401;52.504;13.430;2022-11-02T10:32:42;5.57;;;1.17;;
6727;SDS011;3401;52.504;13.430;2022-11-02T10:35:15;2.10;;;1.10;;
6727;SDS011;3401;52.504;13.430;2022-11-02T10:38:09;1.87;;;0.90;;
6727;SDS011;3401;52.504;13.430;2022-11-02T10:40:47;12.90;;;1.70;;
6727;SDS011;3401;52.504;13.430;2022-11-02T10:43:35;0.90;;;0.83;;
6727;SDS011;3401;52.504;13.430;2022-11-02T10:46:23;6.00;;;1.43;;
6727;SDS011;3401;52.504;13.430;2022-11-02T10:48:59;3.83;;;1.67;;
6727;SDS011;3401;52.504;13.430;2022-11-02T10:51:32;3.20;;;1.17;;
6727;SDS011;3401;52.504;13.430;2022-11-02T10:54:00;13.30;;;1.83;;
6727;SDS011;3401;52.504;13.430;2022-11-02T10:56:30;2.43;;;0.80;;
6727;SDS011;3401;52.504;13.430;2022-11-02T10:58:59;5.47;;;0.83;;
6727;SDS011;3401;52.504;13.430;2022-11-02T11:01:30;1.90;;;0.90;;
6727;SDS011;3401;52.504;13.430;2022-11-02T11:03:59;11.60;;;1.80;;
6727;SDS011;3401;52.504;13.430;2022-11-02T11:06:28;11.40;;;1.00;;
6727;SDS011;3401;52.504;13.430;2022-11-02T11:08:58;2.77;;;1.10;;
6727;SDS011;3401;52.504;13.430;2022-11-02T11:11:28;4.00;;;1.07;;
6727;SDS011;3401;52.504;13.430;2022-11-02T11:13:59;5.27;;;0.83;;
6727;SDS011;3401;52.504;13.430;2022-11-02T11:16:50;3.17;;;1.23;;
6727;SDS011;3401;52.504;13.430;2022-11-02T11:19:31;2.00;;;1.00;;
6727;SDS011;3401;52.504;13.430;2022-11-02T11:22:22;4.93;;;1.27;;
6727;SDS011;3401;52.504;13.430;2022-11-02T11:24:52;10.67;;;1.80;;
6727;SDS011;3401;52.504;13.430;2022-11-02T11:27:21;2.20;;;1.07;;
6727;SDS011;3401;52.504;13.430;2022-11-02T11:29:53;4.90;;;1.00;;
6727;SDS011;3401;52.504;13.430;2022-11-02T11:32:23;4.63;;;1.10;;
6727;SDS011;3401;52.504;13.430;2022-11-02T11:34:56;2.83;;;1.03;;
6727;SDS011;3401;52.504;13.430;2022-11-02T11:37:26;23.83;;;1.83;;
6727;SDS011;3401;52.504;13.430;2022-11-02T11:39:54;9.57;;;1.30;;
6727;SDS011;3401;52.504;13.430;2022-11-02T11:42:26;6.20;;;2.13;;
6727;SDS011;3401;52.504;13.430;2022-11-02T11:44:57;4.90;;;0.90;;
6727;SDS011;3401;52.504;13.430;2022-11-02T11:47:28;2.83;;;1.50;;
6727;SDS011;3401;52.504;13.430;2022-11-02T11:49:58;6.03;;;0.90;;
6727;SDS011;3401;52.504;13.430;2022-11-02T11:52:45;5.93;;;1.53;;
6727;SDS011;3401;52.504;13.430;2022-11-02T11:55:20;1.77;;;1.10;;
6727;SDS011;3401;52.504;13.430;2022-11-02T11:58:04;1.87;;;1.13;;
6727;SDS011;3401;52.504;13.430;2022-11-02T12:00:33;2.77;;;1.03;;
6727;SDS011;3401;52.504;13.430;2022-11-02T12:03:01;0.83;;;0.80;;
6727;SDS011;3401;52.504;13.430;2022-11-02T12:05:33;2.73;;;1.10;;
6727;SDS011;3401;52.504;13.430;2022-11-02T12:08:20;3.43;;;0.87;;
6727;SDS011;3401;52.504;13.430;2022-11-02T12:11:01;6.57;;;0.90;;
6727;SDS011;3401;52.504;13.430;2022-11-02T12:13:49;1.70;;;0.73;;
6727;SDS011;3401;52.504;13.430;2022-11-02T12:16:24;1.93;;;1.10;;
6727;SDS011;3401;52.504;13.430;2022-11-02T12:19:01;0.60;;;0.60;;
6727;SDS011;3401;52.504;13.430;2022-11-02T12:21:40;11.03;;;1.37;;
6727;SDS011;3401;52.504;13.430;2022-11-02T12:24:19;2.80;;;0.93;;
6727;SDS011;3401;52.504;13.430;2022-11-02T12:26:59;2.30;;;1.20;;
6727;SDS011;3401;52.504;13.430;2022-11-02T12:29:40;2.30;;;0.70;;
6727;SDS011;3401;52.504;13.430;2022-11-02T12:32:26;2.30;;;1.17;;
6727;SDS011;3401;52.504;13.430;2022-11-02T12:35:08;4.30;;;1.00;;
6727;SDS011;3401;52.504;13.430;2022-11-02T12:38:02;5.60;;;1.33;;
6727;SDS011;3401;52.504;13.430;2022-11-02T12:40:42;6.03;;;1.07;;
6727;SDS011;3401;52.504;13.430;2022-11-02T12:43:22;2.63;;;0.80;;
6727;SDS011;3401;52.504;13.430;2022-11-02T12:46:08;1.10;;;1.00;;
6727;SDS011;3401;52.504;13.430;2022-11-02T12:48:41;2.93;;;1.50;;
6727;SDS011;3401;52.504;13.430;2022-11-02T12:51:16;6.13;;;1.47;;
6727;SDS011;3401;52.504;13.430;2022-11-02T12:53:46;6.03;;;1.10;;
6727;SDS011;3401;52.504;13.430;2022-11-02T12:56:18;4.43;;;0.73;;
6727;SDS011;3401;52.504;13.430;2022-11-02T12:58:47;5.73;;;1.43;;
6727;SDS011;3401;52.504;13.430;2022-11-02T13:01:17;1.63;;;0.70;;
6727;SDS011;3401;52.504;13.430;2022-11-02T13:03:50;0.83;;;0.80;;
6727;SDS011;3401;52.504;13.430;2022-11-02T13:06:24;6.73;;;1.30;;
6727;SDS011;3401;52.504;13.430;2022-11-02T13:08:55;5.50;;;1.40;;
6727;SDS011;3401;52.504;13.430;2022-11-02T13:11:27;2.40;;;0.93;;
6727;SDS011;3401;52.504;13.430;2022-11-02T13:13:57;1.10;;;0.70;;
6727;SDS011;3401;52.504;13.430;2022-11-02T13:16:31;3.50;;;1.50;;
6727;SDS011;3401;52.504;13.430;2022-11-02T13:19:03;14.13;;;1.37;;
6727;SDS011;3401;52.504;13.430;2022-11-02T13:21:32;1.13;;;0.97;;
6727;SDS011;3401;52.504;13.430;2022-11-02T13:24:10;3.20;;;1.10;;
6727;SDS011;3401;52.504;13.430;2022-11-02T13:26:40;1.57;;;0.87;;
6727;SDS011;3401;52.504;13.430;2022-11-02T13:29:12;0.80;;;0.80;;
6727;SDS011;3401;52.504;13.430;2022-11-02T13:31:49;3.23;;;0.80;;
6727;SDS011;3401;52.504;13.430;2022-11-02T13:34:18;1.43;;;1.23;;
6727;SDS011;3401;52.504;13.430;2022-11-02T13:36:55;6.60;;;1.20;;
6727;SDS011;3401;52.504;13.430;2022-11-02T13:39:24;2.63;;;0.93;;
6727;SDS011;3401;52.504;13.430;2022-11-02T13:45:15;1.83;;;0.90;;
6727;SDS011;3401;52.504;13.430;2022-11-02T13:51:21;6.90;;;0.87;;
6727;SDS011;3401;52.504;13.430;2022-11-02T13:53:52;5.80;;;1.00;;
6727;SDS011;3401;52.504;13.430;2022-11-02T13:56:21;2.03;;;0.80;;
6727;SDS011;3401;52.504;13.430;2022-11-02T13:58:55;5.00;;;0.90;;
6727;SDS011;3401;52.504;13.430;2022-11-02T14:01:26;0.50;;;0.50;;
6727;SDS011;3401;52.504;13.430;2022-11-02T14:03:57;4.07;;;1.10;;
6727;SDS011;3401;52.504;13.430;2022-11-02T14:06:31;3.80;;;0.63;;
6727;SDS011;3401;52.504;13.430;2022-11-02T14:09:01;6.43;;;0.80;;
6727;SDS011;3401;52.504;13.430;2022-11-02T14:11:34;3.73;;;0.80;;
6727;SDS011;3401;52.504;13.430;2022-11-02T14:14:04;6.20;;;1.20;;
6727;SDS011;3401;52.504;13.430;2022-11-02T14:16:55;2.20;;;1.00;;
6727;SDS011;3401;52.504;13.430;2022-11-02T14:19:28;4.40;;;1.07;;
6727;SDS011;3401;52.504;13.430;2022-11-02T14:22:19;3.03;;;1.17;;
6727;SDS011;3401;52.504;13.430;2022-11-02T14:24:53;3.67;;;1.40;;
6727;SDS011;3401;52.504;13.430;2022-11-02T14:27:32;2.60;;;1.40;;
6727;SDS011;3401;52.504;13.430;2022-11-02T14:30:00;1.90;;;0.90;;
6727;SDS011;3401;52.504;13.430;2022-11-02T14:32:37;5.10;;;1.03;;
6727;SDS011;3401;52.504;13.430;2022-11-02T14:35:12;1.73;;;1.20;;
6727;SDS011;3401;52.504;13.430;2022-11-02T14:40:44;5.73;;;1.30;;
6727;SDS011;3401;52.504;13.430;2022-11-02T14:43:23;1.63;;;1.00;;
6727;SDS011;3401;52.504;13.430;2022-11-02T14:46:13;2.87;;;0.80;;
6727;SDS011;3401;52.504;13.430;2022-11-02T14:48:46;1.00;;;0.80;;
6727;SDS011;3401;52.504;13.430;2022-11-02T14:51:16;1.90;;;0.87;;
6727;SDS011;3401;52.504;13.430;2022-11-02T14:53:47;3.07;;;1.23;;
6727;SDS011;3401;52.504;13.430;2022-11-02T14:56:20;2.40;;;0.90;;
6727;SDS011;3401;52.504;13.430;2022-11-02T14:58:48;2.67;;;1.20;;
6727;SDS011;3401;52.504;13.430;2022-11-02T15:01:18;4.13;;;0.73;;
6727;SDS011;3401;52.504;13.430;2022-11-02T15:03:46;1.90;;;1.20;;
6727;SDS011;3401;52.504;13.430;2022-11-02T15:06:15;2.93;;;0.87;;
6727;SDS011;3401;52.504;13.430;2022-11-02T15:08:51;5.80;;;1.20;;
6727;SDS011;3401;52.504;13.430;2022-11-02T15:16:57;9.03;;;1.30;;
6727;SDS011;3401;52.504;13.430;2022-11-02T15:19:33;1.50;;;0.87;;
6727;SDS011;3401;52.504;13.430;2022-11-02T15:25:08;4.77;;;1.63;;
6727;SDS011;3401;52.504;13.430;2022-11-02T15:27:39;5.30;;;1.03;;
6727;SDS011;3401;52.504;13.430;2022-11-02T15:30:11;9.83;;;0.80;;
6727;SDS011;3401;52.504;13.430;2022-11-02T15:32:41;1.30;;;0.90;;
6727;SDS011;3401;52.504;13.430;2022-11-02T15:35:13;5.90;;;1.70;;
6727;SDS011;3401;52.504;13.430;2022-11-02T15:37:43;3.93;;;1.70;;
6727;SDS011;3401;52.504;13.430;2022-11-02T15:40:34;3.63;;;1.63;;
6727;SDS011;3401;52.504;13.430;2022-11-02T15:43:05;0.50;;;0.50;;
6727;SDS011;3401;52.504;13.430;2022-11-02T15:45:43;7.10;;;1.13;;
6727;SDS011;3401;52.504;13.430;2022-11-02T15:48:29;4.40;;;1.10;;
6727;SDS011;3401;52.504;13.430;2022-11-02T15:51:04;2.47;;;1.63;;
6727;SDS011;3401;52.504;13.430;2022-11-02T15:53:43;4.90;;;1.17;;
6727;SDS011;3401;52.504;13.430;2022-11-02T15:56:41;2.30;;;1.20;;